Time;durP1;ratioP1;P1;durP2;ratioP2;P2;SDS_P1;SDS_P2;PMS_P1;PMS_P2;Temp;Humidity;BMP_temperature;BMP_pressure;BME280_temperature;BME280_humidity;BME280_pressure;Samples;Min_cycle;Max_cycle;Signal;HPM_P1;HPM_P2
2021/10/01 00:02:22;;;;;;;11.75;6.80;;;;;;;10.95;100.00;101347.13;5136929;27;20039;-82
2021/10/01 00:04:50;;;;;;;10.38;7.28;;;;;;;11.02;100.00;101351.25;5136252;27;20078;-82
2021/10/01 00:07:19;;;;;;;13.25;7.35;;;;;;;10.97;100.00;101351.44;5136572;27;20046;-82
2021/10/01 00:09:47;;;;;;;13.80;7.68;;;;;;;10.99;100.00;101352.25;5136237;27;20067;-85
2021/10/01 00:12:18;;;;;;;12.27;7.45;;;;;;;10.98;100.00;101354.97;5136490;27;20039;-86
2021/10/01 00:14:48;;;;;;;11.23;7.82;;;;;;;11.02;100.00;101351.25;5136562;27;20047;-85
2021/10/01 00:17:17;;;;;;;11.45;7.55;;;;;;;10.93;100.00;101357.00;5136485;27;20118;-84
2021/10/01 00:19:45;;;;;;;13.32;7.88;;;;;;;10.96;100.00;101347.03;5136051;27;20047;-84
2021/10/01 00:22:13;;;;;;;10.70;7.03;;;;;;;11.05;100.00;101351.09;5136463;27;20031;-83
2021/10/01 00:24:42;;;;;;;11.85;8.07;;;;;;;11.05;100.00;101351.09;5135739;27;20039;-83
2021/10/01 00:27:12;;;;;;;12.27;7.38;;;;;;;11.09;100.00;101350.03;5136524;27;20055;-78
2021/10/01 00:29:42;;;;;;;13.10;7.93;;;;;;;11.06;100.00;101345.69;5136012;27;20396;-78
2021/10/01 00:32:11;;;;;;;12.82;7.72;;;;;;;11.08;100.00;101340.28;5136202;27;20050;-78
2021/10/01 00:34:39;;;;;;;10.73;7.68;;;;;;;11.15;100.00;101337.28;5136091;27;20051;-78
2021/10/01 00:37:07;;;;;;;12.13;7.78;;;;;;;11.04;100.00;101352.06;5135847;27;20039;-79
2021/10/01 00:39:36;;;;;;;13.95;7.57;;;;;;;11.10;100.00;101347.31;5135524;27;20051;-78
2021/10/01 00:42:04;;;;;;;11.13;7.38;;;;;;;11.10;100.00;101349.97;5136086;27;20499;-79
2021/10/01 00:44:33;;;;;;;12.38;7.75;;;;;;;11.12;100.00;101347.25;5135660;27;20050;-83
2021/10/01 00:47:02;;;;;;;10.93;7.38;;;;;;;11.19;100.00;101343.31;5135856;27;20039;-79
2021/10/01 00:49:31;;;;;;;10.48;6.93;;;;;;;11.40;100.00;101341.50;5136141;27;20451;-78
2021/10/01 00:52:00;;;;;;;11.75;7.63;;;;;;;11.40;100.00;101344.19;5135686;27;20123;-80
2021/10/01 00:54:29;;;;;;;10.90;7.13;;;;;;;11.32;100.00;101349.00;5135839;27;20077;-78
2021/10/01 00:56:58;;;;;;;11.98;7.85;;;;;;;11.27;100.00;101335.84;5135221;27;20046;-78
2021/10/01 00:59:27;;;;;;;14.00;8.27;;;;;;;11.19;100.00;101340.66;5135790;27;20055;-78
2021/10/01 01:01:55;;;;;;;11.95;7.63;;;;;;;11.33;100.00;101338.25;5135267;27;20475;-79
2021/10/01 01:04:25;;;;;;;11.32;8.32;;;;;;;11.45;100.00;101332.31;5135658;27;20430;-78
2021/10/01 01:07:00;;;;;;;12.75;7.80;;;;;;;11.45;100.00;101321.63;5135402;27;20043;-87
2021/10/01 01:09:37;;;;;;;10.68;7.47;;;;;;;11.46;100.00;101334.06;5136137;27;20050;-87
2021/10/01 01:12:25;;;;;;;12.00;8.15;;;;;;;11.32;100.00;101323.16;5135818;27;20384;-87
2021/10/01 01:15:08;;;;;;;14.57;7.97;;;;;;;11.27;100.00;101335.84;5135699;27;20553;-87
2021/10/01 01:17:42;;;;;;;17.67;8.05;;;;;;;11.29;100.00;101334.00;5135890;27;20043;-86
2021/10/01 01:20:18;;;;;;;13.13;7.47;;;;;;;11.46;100.00;101328.72;5135802;27;20043;-86
2021/10/01 01:23:00;;;;;;;10.07;7.30;;;;;;;11.35;100.00;101328.34;5135699;27;20037;-86
2021/10/01 01:25:45;;;;;;;10.57;7.88;;;;;;;11.21;100.00;101325.47;5135157;27;20133;-87
2021/10/01 01:28:30;;;;;;;12.35;8.38;;;;;;;11.03;100.00;101321.81;5135476;27;20496;-86
2021/10/01 01:31:06;;;;;;;10.85;7.45;;;;;;;11.11;100.00;101325.00;5135558;27;20078;-86
2021/10/01 01:33:38;;;;;;;11.23;6.95;;;;;;;11.04;100.00;101322.69;5135968;27;20036;-87
2021/10/01 01:36:10;;;;;;;;;;;;;;;11.03;100.00;101328.97;5135950;27;20126;-87
2021/10/01 01:38:42;;;;;;;10.90;7.43;;;;;;;10.97;100.00;101331.91;5134752;27;19964;-80
2021/10/01 01:41:12;;;;;;;10.52;7.35;;;;;;;11.03;100.00;101320.94;5134773;27;20087;-81
2021/10/01 01:43:42;;;;;;;10.48;6.85;;;;;;;11.09;100.00;101326.00;5134425;27;20234;-80
2021/10/01 01:46:11;;;;;;;10.88;7.47;;;;;;;11.26;100.00;101317.22;5134645;27;20039;-84
2021/10/01 01:48:42;;;;;;;13.45;7.55;;;;;;;11.19;100.00;101321.97;5133843;27;20040;-83
2021/10/01 01:51:14;;;;;;;11.93;7.70;;;;;;;11.17;100.00;101323.84;5134745;27;20063;-83
2021/10/01 01:53:43;;;;;;;10.00;6.75;;;;;;;11.14;100.00;101326.66;5134661;27;20043;-85
2021/10/01 01:56:12;;;;;;;9.85;7.40;;;;;;;11.27;100.00;101326.97;5136046;27;20047;-81
2021/10/01 01:58:42;;;;;;;12.00;7.80;;;;;;;11.28;100.00;101321.53;5134491;27;20039;-81
2021/10/01 02:01:13;;;;;;;10.90;7.25;;;;;;;11.22;100.00;101327.19;5134949;27;20035;-81
2021/10/01 02:03:44;;;;;;;12.57;7.75;;;;;;;11.15;100.00;101321.25;5134799;27;20047;-82
2021/10/01 02:06:13;;;;;;;13.27;7.60;;;;;;;11.10;100.00;101312.59;5134309;27;20035;-83
2021/10/01 02:08:43;;;;;;;11.25;7.43;;;;;;;11.09;100.00;101316.19;5134033;27;20404;-83
2021/10/01 02:11:13;;;;;;;11.82;7.63;;;;;;;11.12;100.00;101320.53;5134221;27;20039;-82
2021/10/01 02:13:43;;;;;;;10.55;7.20;;;;;;;11.10;100.00;101319.75;5134104;27;20046;-83
2021/10/01 02:16:13;;;;;;;10.20;7.35;;;;;;;11.11;100.00;101324.16;5134120;27;20492;-82
2021/10/01 02:18:47;;;;;;;11.27;7.65;;;;;;;11.18;100.00;101328.25;5133947;27;20121;-83
2021/10/01 02:21:18;;;;;;;10.73;7.18;;;;;;;11.21;100.00;101330.81;5134251;27;20081;-78
2021/10/01 02:23:48;;;;;;;11.23;7.07;;;;;;;11.40;100.00;101322.81;5133691;27;20057;-79
2021/10/01 02:26:36;;;;;;;10.15;7.00;;;;;;;11.44;100.00;101322.56;5133627;27;20058;-78
2021/10/01 02:29:16;;;;;;;10.27;6.43;;;;;;;11.46;100.00;101319.84;5134098;27;20047;-77
2021/10/01 02:31:55;;;;;;;12.27;7.33;;;;;;;11.39;100.00;101327.28;5133840;27;20171;-77
2021/10/01 02:34:32;;;;;;;12.85;7.85;;;;;;;11.32;100.00;101332.97;5133925;27;20047;-77
2021/10/01 02:37:00;;;;;;;12.20;8.10;;;;;;;11.27;100.00;101333.16;5133578;27;20065;-78
2021/10/01 02:39:29;;;;;;;10.98;8.07;;;;;;;11.32;100.00;101333.84;5133882;28;20089;-78
2021/10/01 02:41:57;;;;;;;13.15;7.90;;;;;;;11.47;100.00;101333.09;5133467;28;20484;-78
2021/10/01 02:44:25;;;;;;;11.52;7.70;;;;;;;11.73;100.00;101329.22;5133801;27;20111;-78
2021/10/01 02:46:56;;;;;;;10.85;7.93;;;;;;;11.58;100.00;101337.97;5133454;27;20047;-79
2021/10/01 02:49:25;;;;;;;11.23;8.35;;;;;;;11.53;100.00;101336.44;5133806;28;20130;-78
2021/10/01 02:51:58;;;;;;;10.20;7.57;;;;;;;11.80;100.00;101332.50;5133554;27;20047;-78
2021/10/01 02:54:33;;;;;;;11.30;7.57;;;;;;;11.76;100.00;101334.41;5133937;27;20088;-77
2021/10/01 02:57:08;;;;;;;11.07;8.25;;;;;;;11.74;100.00;101333.63;5133455;27;20302;-78
2021/10/01 02:59:40;;;;;;;13.15;8.18;;;;;;;11.71;100.00;101335.59;5135744;27;20039;-78
2021/10/01 03:02:10;;;;;;;11.40;7.95;;;;;;;11.69;100.00;101326.78;5137904;27;20047;-80
2021/10/01 03:04:45;;;;;;;11.45;8.07;;;;;;;11.78;100.00;101329.00;5136602;27;20500;-80
2021/10/01 03:07:15;;;;;;;10.63;7.78;;;;;;;11.76;100.00;101320.16;5137794;27;20053;-80
2021/10/01 03:09:44;;;;;;;11.23;7.72;;;;;;;11.83;100.00;101324.31;5137310;27;20053;-80
2021/10/01 03:12:13;;;;;;;11.13;7.85;;;;;;;11.92;100.00;101323.00;5137784;27;20081;-80
2021/10/01 03:14:42;;;;;;;9.88;7.18;;;;;;;11.95;100.00;101313.03;5137256;27;20126;-82
2021/10/01 03:17:10;;;;;;;9.55;7.35;;;;;;;11.91;100.00;101321.28;5137706;27;20043;-80
2021/10/01 03:19:40;;;;;;;11.70;7.78;;;;;;;11.82;100.00;101321.72;5137553;27;20043;-80
2021/10/01 03:22:09;;;;;;;11.55;7.40;;;;;;;11.89;100.00;101324.03;5137494;27;20498;-80
2021/10/01 03:24:40;;;;;;;11.43;7.82;;;;;;;11.79;100.00;101314.69;5137435;27;20047;-80
2021/10/01 03:27:08;;;;;;;11.27;8.05;;;;;;;11.72;100.00;101321.28;5137635;27;20411;-80
2021/10/01 03:29:38;;;;;;;11.07;7.93;;;;;;;11.80;100.00;101323.63;5137475;27;20043;-80
2021/10/01 03:32:08;;;;;;;12.30;8.25;;;;;;;11.74;100.00;101322.06;5136924;27;20043;-79
2021/10/01 03:34:36;;;;;;;11.77;7.80;;;;;;;11.72;100.00;101307.91;5136193;27;20484;-81
2021/10/01 03:37:06;;;;;;;10.40;7.90;;;;;;;11.68;100.00;101319.72;5136928;27;20404;-80
2021/10/01 03:39:34;;;;;;;12.77;8.38;;;;;;;11.74;100.00;101316.72;5137319;27;20039;-86
2021/10/01 03:42:02;;;;;;;10.23;7.57;;;;;;;11.97;100.00;101311.16;5137183;27;20840;-85
2021/10/01 03:44:31;;;;;;;12.55;8.48;;;;;;;11.98;100.00;101315.56;5137114;27;20478;-81
2021/10/01 03:46:59;;;;;;;12.10;8.95;;;;;;;11.88;100.00;101319.63;5136652;27;20441;-86
2021/10/01 03:49:27;;;;;;;10.32;8.10;;;;;;;11.81;100.00;101310.19;5136853;27;20046;-86
2021/10/01 03:51:58;;;;;;;12.40;9.10;;;;;;;11.85;100.00;101311.75;5136613;27;20039;-79
2021/10/01 03:54:27;;;;;;;14.45;9.20;;;;;;;11.83;100.00;101318.13;5137004;27;20047;-81
2021/10/01 03:56:58;;;;;;;11.98;8.82;;;;;;;11.84;100.00;101320.72;5136491;27;20047;-81
2021/10/01 03:59:26;;;;;;;12.95;9.35;;;;;;;11.71;100.00;101316.88;5136633;27;20074;-81
2021/10/01 04:01:54;;;;;;;12.68;9.45;;;;;;;11.62;100.00;101306.63;5136592;27;20046;-81
2021/10/01 04:04:22;;;;;;;12.63;9.38;;;;;;;11.86;100.00;101313.47;5136566;27;20088;-81
2021/10/01 04:06:56;;;;;;;14.43;10.32;;;;;;;11.86;100.00;101315.28;5135093;27;20079;-78
2021/10/01 04:09:24;;;;;;;14.65;9.48;;;;;;;11.81;100.00;101309.31;5136774;27;20039;-78
2021/10/01 04:11:54;;;;;;;14.75;9.55;;;;;;;11.70;100.00;101315.16;5135215;27;20050;-77
2021/10/01 04:14:23;;;;;;;14.15;10.43;;;;;;;11.57;100.00;101312.16;5136804;27;20088;-78
2021/10/01 04:16:52;;;;;;;15.18;10.68;;;;;;;11.57;100.00;101322.84;5135982;27;20062;-78
2021/10/01 04:19:20;;;;;;;14.45;9.98;;;;;;;11.72;100.00;101313.25;5136595;27;20039;-77
2021/10/01 04:22:04;;;;;;;14.57;9.85;;;;;;;11.65;100.00;101319.81;5136121;27;20078;-77
2021/10/01 04:24:32;;;;;;;13.73;9.35;;;;;;;11.74;100.00;101319.38;5135833;27;20400;-77
2021/10/01 04:27:01;;;;;;;15.73;10.68;;;;;;;11.89;100.00;101317.84;5136060;27;20051;-78
2021/10/01 04:29:30;;;;;;;15.25;9.98;;;;;;;11.72;100.00;101318.59;5136262;27;20035;-78
2021/10/01 04:31:58;;;;;;;15.25;10.55;;;;;;;11.61;100.00;101308.44;5135686;27;20048;-78
2021/10/01 04:34:29;;;;;;;17.05;10.75;;;;;;;11.62;100.00;101314.63;5136213;27;20047;-81
2021/10/01 04:36:57;;;;;;;16.70;11.15;;;;;;;11.64;100.00;101324.31;5135736;27;20125;-77
2021/10/01 04:39:25;;;;;;;15.75;11.15;;;;;;;11.58;100.00;101323.72;5136070;27;20043;-78
2021/10/01 04:41:53;;;;;;;15.57;10.10;;;;;;;11.64;100.00;101318.97;5135698;27;20533;-78
2021/10/01 04:44:23;;;;;;;16.38;10.70;;;;;;;11.69;100.00;101321.44;5135795;27;20047;-78
2021/10/01 04:46:52;;;;;;;14.63;10.07;;;;;;;11.62;100.00;101326.19;5135548;27;20043;-80
2021/10/01 04:49:24;;;;;;;16.85;11.02;;;;;;;11.51;100.00;101322.31;5135765;27;20043;-79
2021/10/01 04:51:52;;;;;;;17.17;11.35;;;;;;;11.62;100.00;101328.88;5135646;27;20043;-79
2021/10/01 04:54:20;;;;;;;17.67;11.15;;;;;;;11.56;100.00;101330.94;5135900;27;20050;-78
2021/10/01 04:56:49;;;;;;;19.15;11.20;;;;;;;11.62;100.00;101336.00;5135310;27;20142;-79
2021/10/01 04:59:17;;;;;;;15.25;9.85;;;;;;;11.67;100.00;101339.31;5135526;27;20051;-78
2021/10/01 05:01:47;;;;;;;15.02;9.93;;;;;;;11.62;100.00;101328.88;5134542;27;20039;-77
2021/10/01 05:04:16;;;;;;;16.30;9.88;;;;;;;11.65;100.00;101341.22;5135610;27;20472;-77
2021/10/01 05:06:44;;;;;;;15.52;9.73;;;;;;;11.68;100.00;101341.09;5135100;27;20043;-78
2021/10/01 05:09:12;;;;;;;15.05;10.23;;;;;;;11.76;100.00;101346.91;5135076;27;20039;-80
2021/10/01 05:11:40;;;;;;;15.70;9.68;;;;;;;11.71;100.00;101343.59;5135275;27;20042;-78
2021/10/01 05:14:09;;;;;;;17.65;10.30;;;;;;;11.78;100.00;101338.84;5134759;27;20051;-80
2021/10/01 05:16:37;;;;;;;16.38;10.63;;;;;;;11.73;100.00;101342.59;5134999;27;20096;-78
2021/10/01 05:19:07;;;;;;;18.80;10.82;;;;;;;11.66;100.00;101343.81;5134706;27;20484;-78
2021/10/01 05:21:35;;;;;;;16.67;10.93;;;;;;;11.61;100.00;101339.63;5135252;27;20403;-80
2021/10/01 05:24:03;;;;;;;18.13;11.40;;;;;;;11.67;100.00;101345.53;5141604;27;20407;-78
2021/10/01 05:26:32;;;;;;;18.25;11.43;;;;;;;11.67;100.00;101336.66;5134874;27;20062;-77
2021/10/01 05:29:00;;;;;;;18.35;11.18;;;;;;;11.75;100.00;101338.03;5134578;27;20047;-79
2021/10/01 05:31:29;;;;;;;16.90;10.50;;;;;;;11.78;100.00;101342.38;5134731;27;20043;-77
2021/10/01 05:33:58;;;;;;;15.95;10.13;;;;;;;11.80;100.00;101345.88;5134246;27;20050;-78
2021/10/01 05:36:28;;;;;;;16.52;9.48;;;;;;;11.80;100.00;101345.00;5134543;27;20043;-77
2021/10/01 05:38:56;;;;;;;17.27;9.82;;;;;;;11.86;100.00;101345.56;5133681;27;20483;-77
2021/10/01 05:41:24;;;;;;;14.95;9.88;;;;;;;11.83;100.00;101345.72;5133211;27;20114;-79
2021/10/01 05:43:53;;;;;;;15.30;9.45;;;;;;;11.90;100.00;101352.50;5133552;27;20099;-82
2021/10/01 05:46:21;;;;;;;15.40;9.25;;;;;;;11.86;100.00;101342.88;5134708;27;20039;-77
2021/10/01 05:48:52;;;;;;;15.07;8.70;;;;;;;11.91;100.00;101348.03;5134234;27;20039;-75
2021/10/01 05:51:20;;;;;;;15.43;9.13;;;;;;;11.88;100.00;101351.72;5134408;27;20403;-76
2021/10/01 05:54:11;;;;;;;17.08;9.65;;;;;;;11.80;100.00;101348.53;5136687;27;20526;-75
2021/10/01 05:56:39;;;;;;;16.50;9.38;;;;;;;11.86;100.00;101345.56;5135693;27;20051;-74
2021/10/01 05:59:08;;;;;;;17.98;9.82;;;;;;;11.90;100.00;101349.84;5134208;27;20043;-72
2021/10/01 06:01:36;;;;;;;16.00;9.63;;;;;;;11.90;100.00;101349.84;5134572;27;20073;-73
2021/10/01 06:04:06;;;;;;;17.92;9.80;;;;;;;11.86;100.00;101342.00;5133960;27;20402;-74
2021/10/01 06:06:35;;;;;;;18.02;9.75;;;;;;;11.91;100.00;101346.22;5134235;27;20046;-76
2021/10/01 06:09:09;;;;;;;17.30;9.75;;;;;;;11.93;100.00;101349.66;5133832;27;20054;-75
2021/10/01 06:11:38;;;;;;;17.60;9.73;;;;;;;12.04;100.00;101349.16;5134700;27;20039;-75
2021/10/01 06:14:11;;;;;;;15.77;9.52;;;;;;;12.15;100.00;101351.28;5133946;27;20043;-74
2021/10/01 06:16:40;;;;;;;16.63;10.43;;;;;;;12.29;100.00;101352.34;5134168;27;20077;-75
2021/10/01 06:19:08;;;;;;;17.55;10.48;;;;;;;12.32;100.00;101354.00;5134018;27;20046;-75
2021/10/01 06:21:37;;;;;;;17.30;9.80;;;;;;;12.30;100.00;101356.75;5134340;27;20044;-74
2021/10/01 06:24:06;;;;;;;14.35;9.60;;;;;;;12.47;100.00;101347.03;5133839;27;20047;-75
2021/10/01 06:26:34;;;;;;;16.88;9.65;;;;;;;12.43;100.00;101350.78;5133897;27;20143;-76
2021/10/01 06:29:03;;;;;;;18.65;10.57;;;;;;;12.55;100.00;101353.72;5133638;27;20395;-75
2021/10/01 06:31:32;;;;;;;16.80;9.75;;;;;;;12.74;100.00;101358.09;5134025;27;20050;-75
2021/10/01 06:34:00;;;;;;;15.85;9.90;;;;;;;12.76;100.00;101358.94;5133191;27;20129;-74
2021/10/01 06:36:29;;;;;;;14.57;8.82;;;;;;;12.97;100.00;101352.44;5133876;27;20078;-73
2021/10/01 06:38:57;;;;;;;15.35;9.50;;;;;;;12.93;100.00;101353.53;5133779;27;20491;-78
2021/10/01 06:41:26;;;;;;;16.83;10.45;;;;;;;12.99;100.00;101355.91;5134135;28;20039;-77
2021/10/01 06:43:57;;;;;;;16.02;8.93;;;;;;;12.97;100.00;101357.81;5133227;27;20095;-79
2021/10/01 06:46:32;;;;;;;15.18;9.85;;;;;;;12.95;100.00;101364.19;5133414;27;20047;-76
2021/10/01 06:49:13;;;;;;;17.35;9.57;;;;;;;12.89;100.00;101371.59;5133264;27;20038;-74
2021/10/01 06:51:57;;;;;;;14.27;9.25;;;;;;;13.04;100.00;101364.56;5133952;28;20043;-80
2021/10/01 07:23:06;;;;;;;18.98;9.13;;;;;;;13.71;100.00;101390.44;5049726;28;20123;-74
2021/10/01 08:18:44;;;;;;;14.10;9.48;;;;;;;14.68;100.00;101384.94;5135991;27;20472;-74
2021/10/01 08:21:14;;;;;;;16.15;9.82;;;;;;;14.60;100.00;101382.72;5135998;27;20036;-74
2021/10/01 08:23:46;;;;;;;13.43;9.13;;;;;;;14.78;100.00;101380.75;5136595;27;20055;-74
2021/10/01 08:26:14;;;;;;;13.35;8.85;;;;;;;14.91;100.00;101375.50;5135788;27;20063;-74
2021/10/01 08:28:42;;;;;;;13.00;8.52;;;;;;;15.03;100.00;101380.13;5135527;27;20396;-74
2021/10/01 08:31:12;;;;;;;12.07;7.80;;;;;;;15.13;100.00;101382.16;5135553;27;20112;-74
2021/10/01 08:33:40;;;;;;;13.02;8.75;;;;;;;15.12;100.00;101382.25;5135901;27;20043;-74
2021/10/01 08:36:08;;;;;;;12.57;8.02;;;;;;;15.06;100.00;101366.53;5135479;27;20045;-75
2021/10/01 08:38:40;;;;;;;12.18;8.43;;;;;;;15.01;100.00;101377.53;5135734;27;20096;-75
2021/10/01 08:41:11;;;;;;;11.70;8.63;;;;;;;15.06;100.00;101369.22;5135320;27;20043;-75
2021/10/01 08:43:41;;;;;;;11.27;7.32;;;;;;;15.14;99.73;101372.25;5134298;27;20158;-74
2021/10/01 08:46:10;;;;;;;11.02;7.55;;;;;;;15.30;97.54;101378.44;5135447;27;20070;-74
2021/10/01 08:48:39;;;;;;;9.52;6.85;;;;;;;15.29;97.06;101368.63;5133593;27;20475;-74
2021/10/01 08:51:09;;;;;;;10.15;7.20;;;;;;;15.21;97.09;101368.25;5133848;27;20400;-74
2021/10/01 08:53:40;;;;;;;9.70;6.57;;;;;;;15.13;96.53;101365.16;5135039;27;20047;-74
2021/10/01 08:56:12;;;;;;;11.35;7.68;;;;;;;14.99;97.84;101365.16;5134235;27;20106;-75
2021/10/01 08:58:40;;;;;;;12.13;7.03;;;;;;;15.08;97.07;101360.09;5134494;27;20047;-73
2021/10/01 09:01:09;;;;;;;10.68;6.53;;;;;;;14.85;96.03;101360.59;5135029;27;20039;-75
2021/10/01 09:03:40;;;;;;;9.82;6.35;;;;;;;14.79;96.13;101358.31;5135035;27;20467;-76
2021/10/01 09:06:09;;;;;;;8.80;5.78;;;;;;;14.79;94.84;101350.25;5135209;27;20043;-75
2021/10/01 09:08:51;;;;;;;8.00;5.32;;;;;;;14.92;94.17;101351.22;5135577;27;20541;-74
2021/10/01 09:11:26;;;;;;;9.68;6.03;;;;;;;15.01;93.86;101352.50;5135050;27;20043;-74
2021/10/01 09:13:54;;;;;;;9.85;6.63;;;;;;;15.14;94.41;101357.00;5135287;27;20043;-74
2021/10/01 09:16:23;;;;;;;10.00;6.90;;;;;;;15.33;92.08;101358.56;5134945;27;20099;-74
2021/10/01 09:18:51;;;;;;;11.13;6.78;;;;;;;15.52;89.19;101350.19;5135193;27;20433;-74
2021/10/01 09:21:22;;;;;;;9.93;5.75;;;;;;;15.68;88.17;101350.97;5133823;27;20479;-74
2021/10/01 09:23:59;;;;;;;8.55;6.00;;;;;;;15.74;88.31;101347.91;5134291;27;20441;-74
2021/10/01 09:26:30;;;;;;;9.13;6.03;;;;;;;15.71;87.79;101342.72;5135164;27;20051;-73
2021/10/01 09:29:00;;;;;;;8.25;5.70;;;;;;;15.60;89.32;101342.50;5135396;27;20074;-74
2021/10/01 09:31:43;;;;;;;9.85;6.68;;;;;;;15.42;89.25;101334.63;5134892;27;20043;-75
2021/10/01 09:34:13;;;;;;;10.05;6.20;;;;;;;15.39;89.11;101340.22;5135059;27;20071;-75
2021/10/01 09:36:43;;;;;;;8.40;5.80;;;;;;;15.37;87.25;101342.16;5134829;27;20078;-74
2021/10/01 09:39:27;;;;;;;10.05;6.38;;;;;;;15.29;88.58;101333.69;5134507;27;20039;-74
2021/10/01 09:41:57;;;;;;;10.18;6.80;;;;;;;15.21;89.04;101330.63;5134963;27;20377;-74
2021/10/01 09:44:29;;;;;;;8.80;5.40;;;;;;;15.39;88.26;101329.47;5134610;27;20047;-75
2021/10/01 09:46:57;;;;;;;9.55;5.30;;;;;;;15.55;88.77;101328.50;5134870;27;20051;-74
2021/10/01 09:49:32;;;;;;;8.23;5.45;;;;;;;15.73;87.22;101328.22;5134120;27;20039;-75
2021/10/01 09:52:01;;;;;;;10.63;5.22;;;;;;;15.90;85.19;101329.78;5134552;27;20043;-74
2021/10/01 09:54:31;;;;;;;7.75;5.03;;;;;;;16.03;83.30;101327.19;5134456;27;20042;-74
2021/10/01 09:57:04;;;;;;;9.50;5.55;;;;;;;16.13;83.32;101327.44;5134379;27;20476;-74
2021/10/01 09:59:34;;;;;;;8.02;5.82;;;;;;;16.28;83.91;101324.56;5134086;27;20050;-74
2021/10/01 10:02:06;;;;;;;9.70;6.35;;;;;;;16.34;83.17;101323.31;5133900;27;20043;-75
2021/10/01 10:04:39;;;;;;;7.93;5.57;;;;;;;16.44;84.37;101334.31;5134601;27;20047;-74
2021/10/01 10:07:09;;;;;;;8.85;6.13;;;;;;;16.41;83.94;101330.00;5134610;27;20035;-75
2021/10/01 10:09:42;;;;;;;9.00;5.88;;;;;;;16.25;84.77;101330.16;5133747;27;20039;-74
2021/10/01 10:12:14;;;;;;;10.95;6.03;;;;;;;16.06;85.22;101321.59;5134042;27;20071;-77
2021/10/01 10:14:46;;;;;;;10.25;5.68;;;;;;;16.04;86.52;101315.44;5133962;27;20540;-75
2021/10/01 10:17:19;;;;;;;8.70;5.47;;;;;;;16.33;83.80;101316.19;5133880;27;20041;-75
2021/10/01 10:19:49;;;;;;;9.50;5.38;;;;;;;16.39;82.24;101315.75;5133856;27;20046;-74
2021/10/01 10:22:19;;;;;;;12.07;7.30;;;;;;;16.30;80.20;101308.31;5132837;27;20063;-74
2021/10/01 10:24:49;;;;;;;7.28;5.07;;;;;;;16.39;81.92;101310.38;5132509;27;20045;-74
2021/10/01 10:27:18;;;;;;;7.65;5.00;;;;;;;16.35;80.89;101306.19;5133006;27;20059;-75
2021/10/01 10:29:48;;;;;;;8.40;5.47;;;;;;;16.45;79.87;101303.72;5133138;27;20043;-74
2021/10/01 10:32:24;;;;;;;7.43;4.70;;;;;;;16.53;78.40;101313.00;5133405;27;20118;-74
2021/10/01 10:34:54;;;;;;;7.72;5.28;;;;;;;16.58;78.87;101310.84;5133470;27;20046;-74
2021/10/01 10:37:35;;;;;;;7.00;4.95;;;;;;;16.66;80.24;101304.06;5133128;27;20043;-75
2021/10/01 10:40:08;;;;;;;7.88;5.03;;;;;;;16.71;81.87;101312.75;5133615;27;20537;-74
2021/10/01 10:42:39;;;;;;;7.13;5.13;;;;;;;16.45;81.01;101304.59;5133617;27;20442;-73
2021/10/01 10:45:15;;;;;;;8.30;5.53;;;;;;;16.22;83.21;101303.47;5133481;27;20092;-74
2021/10/01 10:48:00;;;;;;;8.77;5.45;;;;;;;16.06;83.84;101300.06;5133327;28;20400;-73
2021/10/01 10:50:51;;;;;;;8.05;5.55;;;;;;;16.06;84.22;101301.88;5133023;27;20047;-73
2021/10/01 10:53:21;;;;;;;10.15;4.70;;;;;;;16.23;81.46;101298.94;5133135;28;20043;-73
2021/10/01 10:56:14;;;;;;;7.45;5.00;;;;;;;16.28;81.57;101296.78;5133299;27;20047;-73
2021/10/01 10:58:53;;;;;;;6.07;4.50;;;;;;;16.15;81.97;101285.13;5133776;27;20093;-73
2021/10/01 11:01:36;;;;;;;7.97;5.40;;;;;;;16.14;82.32;101286.09;5133290;27;20040;-73
2021/10/01 11:04:38;;;;;;;6.63;5.38;;;;;;;16.11;80.77;101287.13;5133677;27;20043;-73
2021/10/01 11:07:09;;;;;;;7.75;4.88;;;;;;;16.04;82.16;101280.47;5133439;28;20043;-74
2021/10/01 11:09:39;;;;;;;7.38;4.50;;;;;;;15.88;82.22;101272.53;5133312;27;20039;-74
2021/10/01 11:12:28;;;;;;;10.90;4.72;;;;;;;15.92;83.01;101274.06;5132519;27;20047;-74
2021/10/01 11:15:17;;;;;;;7.80;5.00;;;;;;;16.09;80.10;101266.69;5133698;27;20043;-75
2021/10/01 11:18:14;;;;;;;7.82;5.15;;;;;;;16.15;78.50;101269.84;5132594;27;20055;-75
2021/10/01 11:20:42;;;;;;;8.55;5.07;;;;;;;16.22;75.91;101264.91;5135516;27;20212;-74
2021/10/01 11:23:15;;;;;;;8.40;5.53;;;;;;;16.12;76.30;101263.81;5137279;27;20047;-74
2021/10/01 11:25:44;;;;;;;7.63;5.10;;;;;;;16.13;77.90;101265.53;5135727;27;20166;-74
2021/10/01 11:28:16;;;;;;;7.80;4.43;;;;;;;16.11;77.76;101267.44;5137400;27;20039;-74
2021/10/01 11:30:52;;;;;;;10.05;5.32;;;;;;;16.19;76.83;101257.88;5137479;27;20086;-74
2021/10/01 11:33:21;;;;;;;6.88;4.32;;;;;;;16.22;75.59;101262.22;5136916;27;20043;-75
2021/10/01 11:35:53;;;;;;;8.00;4.60;;;;;;;16.35;75.40;101255.03;5137114;27;20039;-74
2021/10/01 11:38:24;;;;;;;8.43;5.10;;;;;;;16.17;77.57;101253.59;5137196;27;20039;-74
2021/10/01 11:41:21;;;;;;;8.45;5.15;;;;;;;16.11;78.09;101248.59;5137141;27;20376;-74
2021/10/01 11:43:54;;;;;;;9.35;5.68;;;;;;;16.36;78.08;101245.97;5089821;27;20050;-73
2021/10/01 11:46:33;;;;;;;6.90;5.10;;;;;;;16.36;77.24;101250.50;5136502;27;20092;-73
2021/10/01 11:49:07;;;;;;;8.88;5.65;;;;;;;16.27;78.68;101246.59;5137044;27;20043;-74
2021/10/01 11:51:36;;;;;;;9.50;5.40;;;;;;;16.24;78.26;101244.13;5136640;27;20043;-74
2021/10/01 11:54:16;;;;;;;8.73;5.38;;;;;;;16.10;79.17;101244.19;5136731;27;20043;-74
2021/10/01 11:56:56;;;;;;;9.18;5.85;;;;;;;16.23;76.87;101234.34;5136470;27;20066;-75
2021/10/01 11:59:47;;;;;;;7.43;5.40;;;;;;;16.30;76.76;101230.22;5136490;27;20077;-74
2021/10/01 12:02:30;;;;;;;8.85;5.30;;;;;;;16.12;79.12;101231.50;5136278;27;20053;-75
2021/10/01 12:05:00;;;;;;;9.35;5.72;;;;;;;16.29;79.73;101225.81;5135078;27;20055;-73
2021/10/01 12:07:28;;;;;;;9.35;5.75;;;;;;;16.22;80.11;101222.69;5136458;27;20123;-75
2021/10/01 12:10:05;;;;;;;8.55;5.63;;;;;;;16.19;79.86;101217.50;5136007;27;20451;-74
2021/10/01 12:12:33;;;;;;;9.10;5.30;;;;;;;16.21;78.96;101209.31;5135574;27;20126;-75
2021/10/01 12:15:04;;;;;;;9.50;5.82;;;;;;;16.37;79.31;101220.78;5135678;27;20050;-75
2021/10/01 12:17:38;;;;;;;8.02;5.53;;;;;;;16.39;79.88;101216.13;5135930;27;20039;-75
2021/10/01 12:20:07;;;;;;;10.57;5.85;;;;;;;16.38;80.47;101211.72;5136098;27;20109;-74
2021/10/01 12:22:36;;;;;;;9.15;5.53;;;;;;;16.34;80.34;101215.59;5136004;27;20121;-75
2021/10/01 12:25:05;;;;;;;8.77;5.90;;;;;;;16.25;80.41;101210.84;5136349;27;20039;-75
2021/10/01 12:27:40;;;;;;;8.38;5.70;;;;;;;16.34;79.82;101218.31;5136319;27;20051;-74
2021/10/01 12:30:12;;;;;;;9.88;5.45;;;;;;;16.58;78.64;101199.56;5136052;27;20035;-74
2021/10/01 12:32:41;;;;;;;10.35;5.22;;;;;;;16.63;76.48;101199.25;5135011;27;20039;-74
2021/10/01 12:35:13;;;;;;;8.25;5.68;;;;;;;16.43;78.74;101192.56;5135913;27;20050;-75
2021/10/01 12:37:42;;;;;;;8.85;5.25;;;;;;;16.54;78.07;101190.84;5136175;27;20039;-74
2021/10/01 12:40:13;;;;;;;8.05;5.70;;;;;;;16.54;77.91;101196.22;5135961;27;20031;-74
2021/10/01 12:42:42;;;;;;;7.88;5.55;;;;;;;16.55;77.08;101189.00;5135419;27;20046;-74
2021/10/01 12:45:14;;;;;;;10.32;5.70;;;;;;;16.51;77.68;101192.91;5135876;27;20039;-75
2021/10/01 12:47:45;;;;;;;8.15;5.50;;;;;;;16.48;77.36;101185.00;5135808;27;20495;-75
2021/10/01 12:50:15;;;;;;;9.43;5.65;;;;;;;16.55;78.25;101184.47;5135940;27;20051;-75
2021/10/01 12:52:45;;;;;;;9.30;5.57;;;;;;;16.64;78.53;101179.44;5135615;27;20078;-75
2021/10/01 12:55:15;;;;;;;8.48;5.88;;;;;;;16.65;77.24;101173.91;5135745;27;20051;-75
2021/10/01 12:57:44;;;;;;;8.95;5.63;;;;;;;16.77;78.01;101169.53;5135235;27;20043;-75